createdAt,value
2019-03-15T00:00:06.595Z,96975.58
2019-03-15T00:02:35.982Z,96969.56
2019-03-15T00:05:05.978Z,96962.67
2019-03-15T00:07:35.344Z,96975.16
2019-03-15T00:10:05.688Z,96975.13
2019-03-15T00:12:35.094Z,96983.31
2019-03-15T00:15:04.948Z,96993.75
2019-03-15T00:17:34.534Z,96990.34
2019-03-15T00:20:05.391Z,97002.89
2019-03-15T00:22:34.783Z,96994.77
2019-03-15T00:25:04.704Z,96990.17
2019-03-15T00:27:34.116Z,96996.20
2019-03-15T00:30:03.619Z,97004.75
2019-03-15T00:32:33.018Z,97006.83
2019-03-15T00:35:02.517Z,97002.01
2019-03-15T00:37:32.137Z,97002.08
2019-03-15T00:40:01.540Z,96992.70
2019-03-15T00:42:30.897Z,97000.59
2019-03-15T00:45:00.377Z,97008.92
2019-03-15T00:47:29.765Z,97006.26
2019-03-15T00:49:59.337Z,97007.89
2019-03-15T00:52:28.737Z,97010.06
2019-03-15T00:54:58.180Z,97027.11
2019-03-15T00:57:27.757Z,97019.08
2019-03-15T00:59:57.190Z,97031.31
2019-03-15T01:02:26.572Z,97041.33
2019-03-15T01:04:55.918Z,97040.18
2019-03-15T01:07:25.308Z,97042.36
2019-03-15T01:09:54.769Z,97045.09
2019-03-15T01:12:24.199Z,97050.83
2019-03-15T01:14:53.704Z,97052.33
2019-03-15T01:17:23.112Z,97050.27
2019-03-15T01:19:52.491Z,97051.33
2019-03-15T01:22:21.894Z,97050.83
2019-03-15T01:24:51.260Z,97047.32
2019-03-15T01:27:20.630Z,97044.94
2019-03-15T01:29:50.023Z,97051.14
2019-03-15T01:32:19.406Z,97060.51
2019-03-15T01:34:48.838Z,97053.83
2019-03-15T01:37:18.214Z,97063.23
2019-03-15T01:39:47.592Z,97067.19
2019-03-15T01:42:16.994Z,97064.36
2019-03-15T01:44:46.465Z,97074.47
2019-03-15T01:47:15.889Z,97077.89
2019-03-15T01:49:45.496Z,97082.73
2019-03-15T01:52:15.051Z,97084.77
2019-03-15T01:54:44.419Z,97083.88
2019-03-15T01:57:13.810Z,97090.52
2019-03-15T01:59:43.199Z,97079.02
2019-03-15T02:02:12.590Z,97083.83
2019-03-15T02:04:41.996Z,97080.41
2019-03-15T02:07:11.459Z,97091.09
2019-03-15T02:09:40.900Z,97094.58
2019-03-15T02:12:10.254Z,97104.14
2019-03-15T02:14:39.644Z,97110.19
2019-03-15T02:17:09.108Z,97108.77
2019-03-15T02:19:38.496Z,97111.61
2019-03-15T02:22:08.443Z,97106.64
2019-03-15T02:24:38.079Z,97111.02
2019-03-15T02:27:07.514Z,97112.32
2019-03-15T02:29:36.904Z,97111.61
2019-03-15T02:32:06.277Z,97109.65
2019-03-15T02:34:35.668Z,97107.50
2019-03-15T02:37:05.117Z,97108.33
2019-03-15T02:39:34.541Z,97110.66
2019-03-15T02:42:03.926Z,97116.61
2019-03-15T02:44:33.294Z,97116.80
2019-03-15T02:47:02.710Z,97120.73
2019-03-15T02:49:32.080Z,97117.22
2019-03-15T02:52:01.672Z,97114.63
2019-03-15T02:54:31.118Z,97118.77
2019-03-15T02:57:00.495Z,97123.36
2019-03-15T02:59:29.898Z,97113.41
2019-03-15T03:02:00.675Z,97103.89
2019-03-15T03:04:30.343Z,97098.34
2019-03-15T03:06:59.736Z,97107.17
2019-03-15T03:09:29.124Z,97103.16
2019-03-15T03:11:58.520Z,97104.49
2019-03-15T03:14:27.935Z,97108.20
2019-03-15T03:16:57.495Z,97126.34
2019-03-15T03:19:28.203Z,97122.33
2019-03-15T03:21:57.830Z,97116.14
2019-03-15T03:24:27.186Z,97114.05
2019-03-15T03:26:56.579Z,97113.35
2019-03-15T03:29:26.004Z,97126.33
2019-03-15T03:31:55.545Z,97124.79
2019-03-15T03:34:24.994Z,97125.89
2019-03-15T03:36:57.826Z,97129.55
2019-03-15T03:39:25.511Z,97129.70
2019-03-15T03:41:55.631Z,97123.84
2019-03-15T03:44:25.007Z,97121.42
2019-03-15T03:46:54.614Z,97122.16
2019-03-15T03:49:24.002Z,97115.41
2019-03-15T03:51:53.399Z,97124.94
2019-03-15T03:54:22.798Z,97130.28
2019-03-15T03:56:52.187Z,97117.99
2019-03-15T03:59:23.066Z,97134.95
2019-03-15T04:01:52.444Z,97145.11
2019-03-15T04:04:21.810Z,97141.58
2019-03-15T04:06:51.196Z,97148.52
2019-03-15T04:09:20.566Z,97146.41
2019-03-15T04:11:55.282Z,97146.78
2019-03-15T04:14:21.085Z,97142.51
2019-03-15T04:16:50.630Z,97131.31
2019-03-15T04:19:20.041Z,97126.20
2019-03-15T04:21:49.421Z,97122.30
2019-03-15T04:24:18.944Z,97122.60
2019-03-15T04:26:48.381Z,97121.52
2019-03-15T04:29:17.795Z,97123.30
2019-03-15T04:31:47.156Z,97133.70
2019-03-15T04:34:16.609Z,97136.63
2019-03-15T04:36:46.003Z,97145.80
2019-03-15T04:39:15.412Z,97150.86
2019-03-15T04:41:44.817Z,97159.39
2019-03-15T04:44:14.203Z,97167.86
2019-03-15T04:46:43.644Z,97168.28
2019-03-15T04:49:13.096Z,97161.48
2019-03-15T04:51:42.520Z,97164.01
2019-03-15T04:54:11.878Z,97175.22
2019-03-15T04:56:41.274Z,97168.11
2019-03-15T04:59:10.658Z,97166.88
2019-03-15T05:01:40.285Z,97178.65
2019-03-15T05:04:09.660Z,97177.05
2019-03-15T05:06:39.045Z,97185.94
2019-03-15T05:09:08.473Z,97182.42
2019-03-15T05:11:37.833Z,97184.59
2019-03-15T05:14:07.228Z,97191.84
2019-03-15T05:16:36.624Z,97193.02
2019-03-15T05:19:06.135Z,97198.49
2019-03-15T05:21:35.522Z,97191.66
2019-03-15T05:24:04.969Z,97189.48
2019-03-15T05:26:34.356Z,97190.94
2019-03-15T05:29:03.780Z,97190.80
2019-03-15T05:31:33.177Z,97190.39
2019-03-15T05:34:02.612Z,97192.16
2019-03-15T05:36:32.032Z,97192.95
2019-03-15T05:39:01.514Z,97195.91
2019-03-15T05:41:30.921Z,97201.77
2019-03-15T05:44:00.294Z,97197.14
2019-03-15T05:46:29.853Z,97195.91
2019-03-15T05:48:59.643Z,97186.57
2019-03-15T05:51:29.046Z,97184.59
2019-03-15T05:53:59.257Z,97196.16
2019-03-15T05:56:28.631Z,97197.39
2019-03-15T05:58:58.066Z,97200.92
2019-03-15T06:01:27.455Z,97201.52
2019-03-15T06:03:57.117Z,97201.47
2019-03-15T06:06:26.502Z,97210.34
2019-03-15T06:08:55.901Z,97196.11
2019-03-15T06:11:25.478Z,97196.02
2019-03-15T06:13:55.056Z,97191.95
2019-03-15T06:16:24.823Z,97183.57
2019-03-15T06:18:54.244Z,97191.05
2019-03-15T06:21:23.671Z,97181.08
2019-03-15T06:23:53.056Z,97178.58
2019-03-15T06:26:22.460Z,97171.81
2019-03-15T06:28:51.835Z,97175.84
2019-03-15T06:31:21.224Z,97165.86
2019-03-15T06:33:50.673Z,97182.44
2019-03-15T06:36:20.071Z,97188.57
2019-03-15T06:38:49.689Z,97183.89
2019-03-15T06:41:19.203Z,97188.47
2019-03-15T06:43:48.576Z,97192.84
2019-03-15T06:46:18.196Z,97186.47
2019-03-15T06:48:47.586Z,97188.75
2019-03-15T06:51:16.989Z,97195.03
2019-03-15T06:53:47.953Z,97205.66
2019-03-15T06:56:17.624Z,97206.06
2019-03-15T06:58:47.038Z,97206.67
2019-03-15T07:01:16.411Z,97194.68
2019-03-15T07:03:45.985Z,97192.30
2019-03-15T07:06:15.379Z,97191.02
2019-03-15T07:08:44.860Z,97189.07
2019-03-15T07:11:14.258Z,97194.48
2019-03-15T07:13:43.701Z,97191.32
2019-03-15T07:16:13.142Z,97197.83
2019-03-15T07:18:42.566Z,97194.28
2019-03-15T07:21:12.219Z,97189.16
2019-03-15T07:23:41.584Z,97195.52
2019-03-15T07:26:11.218Z,97196.78
2019-03-15T07:28:40.622Z,97190.67
2019-03-15T07:31:09.995Z,97192.04
2019-03-15T07:33:39.477Z,97191.19
2019-03-15T07:36:08.981Z,97180.63
2019-03-15T07:38:38.390Z,97188.30
2019-03-15T07:41:07.773Z,97185.04
2019-03-15T07:43:37.181Z,97184.90
2019-03-15T07:46:06.577Z,97181.95
2019-03-15T07:48:35.941Z,97178.98
2019-03-15T07:51:05.394Z,97170.31
2019-03-15T07:53:35.552Z,97178.66
2019-03-15T07:56:05.264Z,97188.78
2019-03-15T07:58:34.627Z,97179.53
2019-03-15T08:01:04.216Z,97178.61
2019-03-15T08:03:33.600Z,97174.91
2019-03-15T08:06:03.031Z,97182.23
2019-03-15T08:08:32.608Z,97188.78
2019-03-15T08:11:02.102Z,97186.38
2019-03-15T08:13:31.533Z,97180.73
2019-03-15T08:16:00.906Z,97195.61
2019-03-15T08:18:30.357Z,97204.47
2019-03-15T08:20:59.973Z,97198.05
2019-03-15T08:23:29.384Z,97193.23
2019-03-15T08:25:58.784Z,97193.13
2019-03-15T08:28:28.236Z,97190.34
2019-03-15T08:30:57.671Z,97187.58
2019-03-15T08:33:27.135Z,97189.24
2019-03-15T08:35:56.614Z,97192.02
2019-03-15T08:38:25.994Z,97198.61
2019-03-15T08:40:55.754Z,97190.51
2019-03-15T08:43:25.294Z,97191.32
2019-03-15T08:45:54.742Z,97186.92
2019-03-15T08:48:24.247Z,97194.11
2019-03-15T08:50:53.716Z,97196.12
2019-03-15T08:53:23.089Z,97196.61
2019-03-15T08:55:52.595Z,97198.86
2019-03-15T08:58:22.562Z,97197.66
2019-03-15T09:00:52.304Z,97193.69
2019-03-15T09:03:27.780Z,97190.94
2019-03-15T09:05:52.995Z,97191.91
2019-03-15T09:08:24.033Z,97192.77
2019-03-15T09:10:53.455Z,97188.16
2019-03-15T09:13:22.887Z,97185.12
2019-03-15T09:15:52.300Z,97187.31
2019-03-15T09:18:21.903Z,97184.59
2019-03-15T09:20:51.298Z,97180.70
2019-03-15T09:23:20.726Z,97180.08
2019-03-15T09:25:50.155Z,97180.95
2019-03-15T09:28:19.528Z,97176.96
2019-03-15T09:30:49.224Z,97181.18
2019-03-15T09:33:18.572Z,97176.77
2019-03-15T09:35:47.961Z,97169.12
2019-03-15T09:38:17.369Z,97165.25
2019-03-15T09:40:46.748Z,97175.13
2019-03-15T09:43:16.225Z,97174.58
2019-03-15T09:45:45.647Z,97167.98
2019-03-15T09:48:15.037Z,97168.12
2019-03-15T09:50:51.105Z,97162.91
2019-03-15T09:53:15.584Z,97168.30
2019-03-15T09:55:45.148Z,97159.64
2019-03-15T09:58:14.921Z,97165.13
2019-03-15T10:00:44.318Z,97163.11
2019-03-15T10:03:22.021Z,97159.41
2019-03-15T10:05:44.990Z,97161.35
2019-03-15T10:08:14.386Z,97160.08
2019-03-15T10:10:43.805Z,97161.70
2019-03-15T10:13:13.218Z,97157.28
2019-03-15T10:15:42.897Z,97168.48
2019-03-15T10:18:12.310Z,97152.47
2019-03-15T10:20:41.685Z,97151.72
2019-03-15T10:23:11.192Z,97148.98
2019-03-15T10:25:46.601Z,97147.78
2019-03-15T10:28:11.810Z,97143.51
2019-03-15T10:30:41.271Z,97122.23
2019-03-15T10:33:10.722Z,97113.61
2019-03-15T10:35:40.084Z,97110.77
2019-03-15T10:38:09.983Z,97116.51
2019-03-15T10:40:39.386Z,97096.34
2019-03-15T10:43:08.758Z,97088.44
2019-03-15T10:45:38.153Z,97092.38
2019-03-15T10:48:08.253Z,97086.85
2019-03-15T10:50:38.013Z,97081.64
2019-03-15T10:53:07.387Z,97083.46
2019-03-15T10:55:36.769Z,97071.86
2019-03-15T10:58:06.162Z,97063.73
2019-03-15T11:00:35.637Z,97054.37
2019-03-15T11:03:05.009Z,97046.72
2019-03-15T11:05:34.375Z,97053.73
2019-03-15T11:08:04.095Z,97085.87
2019-03-15T11:10:33.598Z,97071.36
2019-03-15T11:13:02.994Z,97053.36
2019-03-15T11:15:32.368Z,97068.45
2019-03-15T11:18:02.057Z,97062.20
2019-03-15T11:20:31.699Z,97065.23
2019-03-15T11:23:01.308Z,97066.99
2019-03-15T11:25:30.709Z,97063.61
2019-03-15T11:28:00.108Z,97054.86
2019-03-15T11:30:29.507Z,97051.03
2019-03-15T11:32:58.876Z,97041.05
2019-03-15T11:35:28.279Z,97046.91
2019-03-15T11:37:57.653Z,97040.08
2019-03-15T11:40:27.042Z,97037.43
2019-03-15T11:42:56.727Z,97031.02
2019-03-15T11:45:28.441Z,97024.25
2019-03-15T11:48:04.744Z,97027.95
2019-03-15T11:50:29.115Z,97021.04
2019-03-15T11:52:58.520Z,97010.77
2019-03-15T11:55:29.375Z,97019.05
2019-03-15T11:57:59.906Z,97012.80
2019-03-15T12:00:30.194Z,97010.55
2019-03-15T12:03:01.522Z,97017.09
2019-03-15T12:05:31.045Z,97016.61
2019-03-15T12:08:00.400Z,97010.52
2019-03-15T12:10:29.811Z,97005.16
2019-03-15T12:12:59.379Z,97008.16
2019-03-15T12:15:28.813Z,97013.10
2019-03-15T12:17:58.169Z,97006.31
2019-03-15T12:20:27.567Z,97007.45
2019-03-15T12:22:57.051Z,96995.52
2019-03-15T12:25:26.455Z,97000.19
2019-03-15T12:27:55.853Z,97007.38
2019-03-15T12:30:25.241Z,97008.55
2019-03-15T12:32:54.667Z,97004.47
2019-03-15T12:35:24.046Z,96997.09
2019-03-15T12:37:53.475Z,97001.22
2019-03-15T12:40:22.871Z,97006.94
2019-03-15T12:42:52.443Z,97000.47
2019-03-15T12:45:21.818Z,96997.67
2019-03-15T12:47:51.317Z,96996.95
2019-03-15T12:50:20.705Z,96989.77
2019-03-15T12:52:50.063Z,96981.38
2019-03-15T12:55:19.681Z,96978.13
2019-03-15T12:57:49.783Z,96973.65
2019-03-15T13:00:19.419Z,96963.77
2019-03-15T13:02:48.918Z,96963.77
2019-03-15T13:05:18.307Z,96969.73
2019-03-15T13:07:47.726Z,96966.19
2019-03-15T13:10:17.117Z,96968.88
2019-03-15T13:12:46.683Z,96968.88
2019-03-15T13:15:16.928Z,96989.95
2019-03-15T13:17:46.316Z,96978.73
2019-03-15T13:20:16.181Z,96977.52
2019-03-15T13:22:45.566Z,96980.38
2019-03-15T13:25:15.169Z,96980.02
2019-03-15T13:27:44.694Z,96974.83
2019-03-15T13:30:14.191Z,96974.83
2019-03-15T13:32:43.584Z,96985.92
2019-03-15T13:35:13.462Z,96984.58
2019-03-15T13:37:43.454Z,96975.41
2019-03-15T13:40:13.104Z,96982.05
2019-03-15T13:42:42.548Z,96986.17
2019-03-15T13:45:12.047Z,96976.83
2019-03-15T13:47:41.431Z,96976.83
2019-03-15T13:50:11.883Z,96969.06
2019-03-15T13:52:41.272Z,96975.06
2019-03-15T13:55:10.833Z,96975.06
2019-03-15T13:57:40.275Z,96981.69
2019-03-15T14:00:11.339Z,96965.56
2019-03-15T14:02:40.725Z,96968.02
2019-03-15T14:05:10.169Z,96968.02
2019-03-15T14:07:39.577Z,96974.27
2019-03-15T14:10:09.864Z,96967.53
2019-03-15T14:12:39.580Z,96970.23
2019-03-15T14:15:10.324Z,96966.02
2019-03-15T14:17:40.122Z,96966.75
2019-03-15T14:20:10.298Z,96958.98
2019-03-15T14:22:39.730Z,96958.98
2019-03-15T14:25:10.510Z,96959.61
2019-03-15T14:27:39.919Z,96956.88
2019-03-15T14:30:11.026Z,96950.23
2019-03-15T14:32:40.464Z,96947.14
2019-03-15T14:35:10.236Z,96960.03
2019-03-15T14:37:39.849Z,96954.88
2019-03-15T14:40:09.437Z,96951.12
2019-03-15T14:42:38.995Z,96949.70
2019-03-15T14:45:09.494Z,96957.80
2019-03-15T14:47:39.217Z,96957.14
2019-03-15T14:50:08.816Z,96955.39
2019-03-15T14:52:38.249Z,96957.86
2019-03-15T14:55:08.038Z,96965.19
2019-03-15T14:57:50.597Z,96964.95
2019-03-15T15:00:11.270Z,96952.05
2019-03-15T15:02:40.969Z,96976.80
2019-03-15T15:05:11.708Z,96969.46
2019-03-15T15:07:41.189Z,96974.63
2019-03-15T15:10:11.319Z,96970.64
2019-03-15T15:12:40.790Z,96979.30
2019-03-15T15:15:12.076Z,96968.34
2019-03-15T15:17:41.758Z,96975.22
2019-03-15T15:20:11.584Z,96969.63
2019-03-15T15:22:41.007Z,96965.41
2019-03-15T15:25:10.827Z,96971.70
2019-03-15T15:27:40.284Z,96974.63
2019-03-15T15:30:10.524Z,96973.41
2019-03-15T15:32:39.959Z,96960.47
2019-03-15T15:35:09.472Z,96962.52
2019-03-15T15:37:38.912Z,96966.34
2019-03-15T15:40:09.683Z,96945.80
2019-03-15T15:42:39.198Z,96960.66
2019-03-15T15:45:09.116Z,96960.31
2019-03-15T15:47:38.543Z,96961.09
2019-03-15T15:50:08.510Z,96948.77
2019-03-15T15:52:38.022Z,96941.19
2019-03-15T15:55:07.950Z,96964.34
2019-03-15T15:57:37.457Z,96968.75
2019-03-15T16:00:08.044Z,96955.52
2019-03-15T16:02:37.536Z,96971.55
2019-03-15T16:05:08.675Z,96954.85
2019-03-15T16:07:38.346Z,96961.73
2019-03-15T16:10:09.401Z,96959.11
2019-03-15T16:12:38.800Z,96955.35
2019-03-15T16:15:09.022Z,96965.97
2019-03-15T16:17:38.598Z,96977.92
2019-03-15T16:20:09.160Z,96977.92
2019-03-15T16:22:38.556Z,96972.70
2019-03-15T16:25:07.957Z,96954.38
2019-03-15T16:27:37.714Z,96985.89
2019-03-15T16:30:08.720Z,96995.46
2019-03-15T16:32:38.408Z,96996.61
2019-03-15T16:35:09.539Z,97003.13
2019-03-15T16:37:38.995Z,97011.38
2019-03-15T16:40:08.773Z,97009.23
2019-03-15T16:42:38.176Z,97006.41
2019-03-15T16:45:10.046Z,97012.66
2019-03-15T16:47:39.510Z,97018.31
2019-03-15T16:50:10.504Z,97018.84
2019-03-15T16:52:39.883Z,97020.19
2019-03-15T16:55:10.357Z,97016.77
2019-03-15T16:57:39.833Z,97023.74
2019-03-15T17:00:10.470Z,97017.49
2019-03-15T17:02:39.915Z,97015.48
2019-03-15T17:05:10.567Z,97007.63
2019-03-15T17:07:40.046Z,97013.68
2019-03-15T17:10:11.124Z,96994.83
2019-03-15T17:12:40.713Z,97012.17
2019-03-15T17:15:11.681Z,97016.61
2019-03-15T17:17:41.071Z,97015.48
2019-03-15T17:20:11.332Z,97009.47
2019-03-15T17:22:40.825Z,97002.56
2019-03-15T17:25:10.780Z,97012.56
2019-03-15T17:27:40.158Z,97021.21
2019-03-15T17:30:11.413Z,97020.06
2019-03-15T17:32:40.869Z,97004.38
2019-03-15T17:35:11.630Z,97016.22
2019-03-15T17:37:41.165Z,97009.47
2019-03-15T17:40:12.073Z,97021.19
2019-03-15T17:42:41.547Z,97020.16
2019-03-15T17:45:13.050Z,97033.58
2019-03-15T17:47:42.593Z,97032.40
2019-03-15T17:50:13.989Z,97032.62
2019-03-15T17:52:43.411Z,97016.48
2019-03-15T17:55:13.287Z,97030.78
2019-03-15T17:57:45.396Z,97017.00
2019-03-15T18:00:42.402Z,97033.48
2019-03-15T18:03:20.751Z,97028.98
2019-03-15T18:05:43.150Z,97027.16
2019-03-15T18:08:12.530Z,97026.05
2019-03-15T18:10:42.058Z,97034.06
2019-03-15T18:13:11.468Z,97027.02
2019-03-15T18:15:40.947Z,97029.39
2019-03-15T18:18:10.322Z,97032.73
2019-03-15T18:20:39.833Z,97038.84
2019-03-15T18:23:09.491Z,97021.16
2019-03-15T18:25:38.984Z,97022.74
2019-03-15T18:28:08.402Z,97027.67
2019-03-15T18:30:37.926Z,97029.09
2019-03-15T18:33:07.437Z,97040.34
2019-03-15T18:35:36.896Z,97036.53
2019-03-15T18:38:06.331Z,97028.61
2019-03-15T18:40:35.846Z,97040.00
2019-03-15T18:43:05.283Z,97040.78
2019-03-15T18:45:35.101Z,97048.72
2019-03-15T18:48:04.822Z,97044.04
2019-03-15T18:50:34.231Z,97031.74
2019-03-15T18:53:03.815Z,97051.51
2019-03-15T18:55:33.190Z,97042.77
2019-03-15T18:58:02.609Z,97051.09
2019-03-15T19:00:32.183Z,97052.44
2019-03-15T19:03:01.575Z,97045.99
2019-03-15T19:05:30.997Z,97063.99
2019-03-15T19:08:00.457Z,97060.20
2019-03-15T19:10:29.866Z,97057.51
2019-03-15T19:12:59.696Z,97064.41
2019-03-15T19:15:29.173Z,97067.64
2019-03-15T19:17:58.607Z,97059.48
2019-03-15T19:20:28.134Z,97056.65
2019-03-15T19:22:57.649Z,97067.58
2019-03-15T19:25:27.143Z,97076.32
2019-03-15T19:27:56.526Z,97076.09
2019-03-15T19:30:26.184Z,97070.44
2019-03-15T19:32:55.665Z,97079.88
2019-03-15T19:35:25.838Z,97078.72
2019-03-15T19:37:55.437Z,97072.44
2019-03-15T19:40:25.319Z,97063.16
2019-03-15T19:42:55.267Z,97082.03
2019-03-15T19:45:24.938Z,97068.08
2019-03-15T19:47:54.663Z,97061.34
2019-03-15T19:50:24.234Z,97075.29
2019-03-15T19:52:55.963Z,97079.10
2019-03-15T19:55:25.688Z,97078.48
2019-03-15T19:57:55.348Z,97087.12
2019-03-15T20:00:25.263Z,97096.09
2019-03-15T20:02:57.019Z,97086.09
2019-03-15T20:05:26.879Z,97111.00
2019-03-15T20:07:56.721Z,97095.20
2019-03-15T20:10:26.733Z,97087.44
2019-03-15T20:12:56.459Z,97099.52
2019-03-15T20:15:26.492Z,97110.44
2019-03-15T20:17:56.407Z,97104.02
2019-03-15T20:20:25.989Z,97097.67
2019-03-15T20:22:55.733Z,97103.30
2019-03-15T20:25:25.721Z,97105.85
2019-03-15T20:27:55.260Z,97105.85
2019-03-15T20:30:26.796Z,97100.13
2019-03-15T20:32:56.262Z,97101.02
2019-03-15T20:35:25.670Z,97101.58
2019-03-15T20:37:55.090Z,97103.23
2019-03-15T20:40:24.479Z,97104.49
2019-03-15T20:42:54.008Z,97103.70
2019-03-15T20:45:23.642Z,97095.52
2019-03-15T20:47:53.171Z,97101.64
2019-03-15T20:50:22.686Z,97102.89
2019-03-15T20:52:52.447Z,97107.92
2019-03-15T20:55:22.502Z,97110.75
2019-03-15T20:57:51.953Z,97109.16
2019-03-15T21:00:34.350Z,97106.30
2019-03-15T21:02:52.574Z,97110.27
2019-03-15T21:05:21.957Z,97111.53
2019-03-15T21:07:51.509Z,97102.72
2019-03-15T21:10:20.980Z,97116.13
2019-03-15T21:12:50.483Z,97108.83
2019-03-15T21:15:19.899Z,97124.32
2019-03-15T21:17:49.412Z,97119.70
2019-03-15T21:20:22.172Z,97117.16
2019-03-15T21:22:50.205Z,97112.39
2019-03-15T21:25:19.649Z,97113.20
2019-03-15T21:27:54.200Z,97116.91
2019-03-15T21:30:20.274Z,97114.44
2019-03-15T21:32:49.907Z,97112.30
2019-03-15T21:35:19.524Z,97131.36
2019-03-15T21:37:48.925Z,97114.19
2019-03-15T21:40:18.313Z,97122.14
2019-03-15T21:42:48.149Z,97131.36
2019-03-15T21:45:17.593Z,97134.21
2019-03-15T21:47:47.220Z,97130.00
2019-03-15T21:50:16.649Z,97131.36
2019-03-15T21:52:46.321Z,97145.47
2019-03-15T21:55:15.710Z,97132.53
2019-03-15T21:57:45.228Z,97124.69
2019-03-15T22:00:15.033Z,97137.38
2019-03-15T22:02:44.526Z,97137.14
2019-03-15T22:05:14.005Z,97138.03
2019-03-15T22:07:43.545Z,97130.81
2019-03-15T22:10:13.011Z,97151.69
2019-03-15T22:12:42.386Z,97139.14
2019-03-15T22:15:13.661Z,97146.21
2019-03-15T22:17:43.152Z,97145.66
2019-03-15T22:20:12.750Z,97140.73
2019-03-15T22:22:42.760Z,97154.06
2019-03-15T22:25:12.142Z,97141.75
2019-03-15T22:27:41.557Z,97158.91
2019-03-15T22:30:11.589Z,97134.30
2019-03-15T22:32:41.116Z,97146.77
2019-03-15T22:35:10.956Z,97143.42
2019-03-15T22:37:40.509Z,97145.33
2019-03-15T22:40:10.227Z,97138.35
2019-03-15T22:42:39.837Z,97126.59
2019-03-15T22:45:09.655Z,97143.66
2019-03-15T22:47:39.340Z,97137.33
2019-03-15T22:50:09.580Z,97141.14
2019-03-15T22:52:39.170Z,97143.66
2019-03-15T22:55:08.930Z,97148.81
2019-03-15T22:57:38.371Z,97144.45
2019-03-15T23:00:10.523Z,97158.49
2019-03-15T23:02:40.417Z,97158.49
2019-03-15T23:05:10.511Z,97142.15
2019-03-15T23:07:40.222Z,97163.50
2019-03-15T23:10:10.483Z,97167.53
2019-03-15T23:12:40.139Z,97150.70
2019-03-15T23:15:09.818Z,97150.70
2019-03-15T23:17:39.240Z,97141.27
2019-03-15T23:20:08.675Z,97154.84
2019-03-15T23:22:38.181Z,97164.93
2019-03-15T23:25:07.746Z,97171.37
2019-03-15T23:27:37.591Z,97169.75
2019-03-15T23:30:07.487Z,97163.88
2019-03-15T23:32:36.910Z,97168.98
2019-03-15T23:35:06.668Z,97158.65
2019-03-15T23:37:36.086Z,97175.95
2019-03-15T23:40:05.960Z,97175.54
2019-03-15T23:42:35.632Z,97187.22
2019-03-15T23:45:05.837Z,97176.27
2019-03-15T23:47:35.215Z,97182.53
2019-03-15T23:50:05.261Z,97181.10
2019-03-15T23:52:34.663Z,97184.54
2019-03-15T23:55:04.180Z,97178.65
2019-03-15T23:57:33.580Z,97181.20
